Pagrindinis puslapis
METAR-TAF:

METAR-TAF

Oro uostai :

Eskišechiras, Turkija

platuma: 39-47N, ilguma: 030-34E, Aukštis: 785 m

METAR: trūkstamas

Laikas: 09:19 (06:19 UTC)

Prognozė

Ataskaita buvo paskelbta 25 valandos ir 39 minutes, ne 04:40 UTC
Prognozė galioja nuo 09 metu 06 UTC su 09 metu 15 UTC
Vėjas 8 kt iš Vakarų
Matomumas 10 km arba daugiau
nėra debesų žemiau 1500 m ir nėra kamuolinių lietaus debesų
Tapsmas
nuo 09 metu 06 UTC su 09 metu 09 UTC
Mažai debesys ne aukštis 4000 ft
Tapsmas
nuo 09 metu 12 UTC su 09 metu 14 UTC
Vėjas 15 kt iš Šiaurės

TAF: LTBI 090440Z 0906/0915 26008KT CAVOK BECMG 0906/0909 FEW040 BECMG 0912/0914 35015KT

Orai ataskaitas ir orų prognozės (METAR, TAF).

turimą stotys yra geltonos ir raudonos taškus žemėlapyje.

Perkelti pele per norėdami pamatyti stoties vardą.

Tada spustelėkite, norėdami matyti oro stebėjimo ir prognozės.

Norėdami pakeisti žemėlapį: spustelėkite ant žalios mygtukų su juodo kryžiaus žemyn,; žalią mygtuką su brūkšneliu, jei norite nutolinti; arba žalių rodyklių gretimoms žemėlapius.


METAR-TAF: